createdAt,value
2023-03-08T00:12:31.484Z,5599.8999
2023-03-08T00:27:34.014Z,4122.93164
2023-03-08T00:42:36.924Z,2811.87842
2023-03-08T00:57:39.201Z,1890.12878
2023-03-08T01:12:41.584Z,1134.29419
2023-03-08T01:27:43.961Z,570.40033
2023-03-08T01:42:46.300Z,182.18109
2023-03-08T01:57:48.731Z,23.85705
2023-03-08T02:12:51.067Z,1.08441
2023-03-08T02:27:53.450Z,0
2023-03-08T02:42:55.854Z,0
2023-03-08T02:57:58.247Z,0
2023-03-08T03:13:00.676Z,0
2023-03-08T03:28:03.037Z,0
2023-03-08T03:43:05.507Z,0
2023-03-08T03:58:07.826Z,0
2023-03-08T04:13:10.215Z,0
2023-03-08T04:28:12.731Z,0
2023-03-08T04:43:15.042Z,0
2023-03-08T04:58:17.346Z,0
2023-03-08T05:13:19.719Z,0
2023-03-08T05:28:22.078Z,0
2023-03-08T05:43:24.455Z,0
2023-03-08T05:58:26.753Z,0
2023-03-08T06:13:29.076Z,0
2023-03-08T06:28:31.636Z,0
2023-03-08T06:43:33.986Z,0
2023-03-08T06:58:36.370Z,0
2023-03-08T07:13:38.732Z,0
2023-03-08T07:28:41.057Z,0
2023-03-08T07:58:56.680Z,0
2023-03-08T08:14:01.278Z,0
2023-03-08T08:29:06.100Z,0
2023-03-08T08:44:11.714Z,0
2023-03-08T08:59:16.524Z,0
2023-03-08T09:14:21.026Z,0
2023-03-08T09:29:25.570Z,0
2023-03-08T09:44:30.050Z,0
2023-03-08T09:59:34.373Z,0
2023-03-08T10:14:38.738Z,0
2023-03-08T10:29:43.135Z,0
2023-03-08T10:44:47.601Z,0
2023-03-08T10:59:52.016Z,0
2023-03-08T11:14:56.585Z,0
2023-03-08T11:30:01.021Z,0
2023-03-08T11:45:05.428Z,0
2023-03-08T12:00:09.859Z,0
2023-03-08T12:15:14.236Z,0
2023-03-08T12:30:18.578Z,0
2023-03-08T12:45:22.969Z,0
2023-03-08T13:00:27.486Z,0
2023-03-08T13:15:31.964Z,0
2023-03-08T13:30:36.405Z,0
2023-03-08T13:45:40.874Z,1.08441
2023-03-08T14:00:45.314Z,13.01294
2023-03-08T14:15:49.831Z,139.88905
2023-03-08T14:30:54.376Z,533.53033
2023-03-08T14:45:58.805Z,1072.48279
2023-03-08T15:01:03.145Z,1808.79797
2023-03-08T15:16:07.987Z,3349.74634
2023-03-08T15:31:12.576Z,3537.34961
2023-03-08T15:46:17.190Z,8509.375
2023-03-08T16:01:21.661Z,16000.48828
2023-03-08T16:16:38.492Z,32368.5918
2023-03-08T16:31:48.841Z,19983.53125
2023-03-08T16:46:53.329Z,15860.59961
2023-03-08T17:01:57.715Z,14335.91699
2023-03-08T17:17:02.300Z,13369.70605
2023-03-08T17:32:06.849Z,16506.9082
2023-03-08T17:47:11.288Z,18928.39844
2023-03-08T18:02:15.897Z,17020.91992
2023-03-08T18:17:18.193Z,34382.34375
2023-03-08T18:32:20.456Z,34230.52734
2023-03-08T18:47:22.775Z,36808.17188
2023-03-08T19:02:27.594Z,39113.62891
2023-03-08T19:17:31.047Z,29696.60156
2023-03-08T19:32:33.359Z,32521.49414
2023-03-08T19:47:35.714Z,20317.5293
2023-03-08T20:02:37.938Z,9091.7041
2023-03-08T20:17:40.180Z,28643.63867
2023-03-08T20:32:42.496Z,26118.04492
2023-03-08T20:47:45.202Z,22852.88281
2023-03-08T21:02:47.549Z,13518.27051
2023-03-08T21:17:49.770Z,12136.73047
2023-03-08T21:32:51.994Z,11801.64746
2023-03-08T21:47:54.300Z,10204.30957
2023-03-08T22:02:56.612Z,10278.0498
2023-03-08T22:17:58.906Z,9495.10547
2023-03-08T22:33:01.231Z,10921.10547
2023-03-08T22:48:03.418Z,12006.60156
2023-03-08T23:03:05.728Z,11930.69238
2023-03-08T23:18:08.024Z,14961.62207
2023-03-08T23:33:10.347Z,16595.83008
2023-03-08T23:48:12.588Z,14244.82617
